Time;durP1;ratioP1;P1;durP2;ratioP2;P2;SDS_P1;SDS_P2;PMS_P1;PMS_P2;Temp;Humidity;BMP_temperature;BMP_pressure;BME280_temperature;BME280_humidity;BME280_pressure;Samples;Min_cycle;Max_cycle;Signal;HPM_P1;HPM_P2
2024/04/02 00:00:41;;;;;;;;;;;;;;;15.23;47.44;99260.84;4952671;28;100424;-70
2024/04/02 00:03:09;;;;;;;;;;;;;;;15.21;47.40;99272.06;4940259;27;97988;-70
2024/04/02 00:05:36;;;;;;;;;;;;;;;15.21;47.22;99280.19;4936429;27;98080;-74
2024/04/02 00:08:05;;;;;;;;;;;;;;;15.20;47.30;99280.50;4934765;27;98299;-74
2024/04/02 00:10:31;;;;;;;;;;;;;;;15.19;47.37;99270.78;4951621;27;99532;-70
2024/04/02 00:12:59;;;;;;;;;;;;;;;15.18;47.53;99269.19;4920881;27;98363;-74
2024/04/02 00:15:25;;;;;;;;;;;;;;;15.15;47.44;99267.91;4926200;27;98138;-74
2024/04/02 00:17:52;;;;;;;;;;;;;;;15.15;47.52;99277.97;4953940;28;98058;-71
2024/04/02 00:20:18;;;;;;;;;;;;;;;15.13;47.22;99278.31;4938000;27;98513;-70
2024/04/02 00:22:45;;;;;;;;;;;;;;;15.12;47.46;99276.69;4937878;27;98935;-70
2024/04/02 00:25:11;;;;;;;;;;;;;;;15.11;46.95;99268.91;4952744;28;98149;-70
2024/04/02 00:27:38;;;;;;;;;;;;;;;15.10;47.16;99267.31;4943508;27;98246;-70
2024/04/02 00:30:06;;;;;;;;;;;;;;;15.09;47.52;99265.69;4939960;27;97992;-70
2024/04/02 00:32:33;;;;;;;;;;;;;;;15.08;47.21;99267.63;4922891;28;98174;-70
2024/04/02 00:34:59;;;;;;;;;;;;;;;15.08;47.17;99272.25;4924885;27;98301;-73
2024/04/02 00:37:25;;;;;;;;;;;;;;;15.06;47.25;99274.53;4943157;28;98284;-71
2024/04/02 00:39:51;;;;;;;;;;;;;;;15.05;47.61;99275.63;4938232;27;98436;-69
2024/04/02 00:42:19;;;;;;;;;;;;;;;15.04;47.36;99276.75;4942565;27;98785;-74
2024/04/02 00:44:46;;;;;;;;;;;;;;;15.02;47.52;99271.66;4950611;27;97937;-70
2024/04/02 00:47:13;;;;;;;;;;;;;;;15.01;47.39;99275.47;4917432;27;98353;-70
2024/04/02 00:49:39;;;;;;;;;;;;;;;15.00;47.49;99265.75;4936081;27;98072;-70
2024/04/02 00:52:07;;;;;;;;;;;;;;;14.99;47.23;99269.59;4952626;27;98479;-73
2024/04/02 00:54:34;;;;;;;;;;;;;;;14.99;47.26;99258.72;4939006;28;98631;-74
2024/04/02 00:57:01;;;;;;;;;;;;;;;14.96;47.53;99260.16;4955883;28;98640;-74
2024/04/02 00:59:29;;;;;;;;;;;;;;;14.95;47.34;99269.44;4940809;27;98302;-74
2024/04/02 01:01:55;;;;;;;;;;;;;;;14.95;47.25;99265.94;4934650;27;98417;-70
2024/04/02 01:04:21;;;;;;;;;;;;;;;14.93;47.58;99266.25;4919681;27;99582;-70
2024/04/02 01:06:47;;;;;;;;;;;;;;;14.93;47.21;99273.59;4926323;27;97965;-70
2024/04/02 01:09:14;;;;;;;;;;;;;;;14.91;47.22;99268.50;4936112;27;98676;-74
2024/04/02 01:11:42;;;;;;;;;;;;;;;14.90;47.27;99272.34;4919616;27;99165;-74
2024/04/02 01:14:09;;;;;;;;;;;;;;;14.89;47.18;99269.94;4936173;28;101829;-74
2024/04/02 01:16:42;;;;;;;;;;;;;;;14.88;47.25;99265.63;4934915;27;98376;-70
2024/04/02 01:19:09;;;;;;;;;;;;;;;14.85;47.62;99275.19;4932559;28;99010;-74
2024/04/02 01:21:37;;;;;;;;;;;;;;;14.84;47.40;99284.47;4937068;28;98410;-70
2024/04/02 01:24:04;;;;;;;;;;;;;;;14.82;47.15;99291.34;4935887;28;99472;-70
2024/04/02 01:26:32;;;;;;;;;;;;;;;14.82;47.46;99291.34;4937104;28;98161;-74
2024/04/02 01:29:01;;;;;;;;;;;;;;;14.79;47.76;99295.50;4935426;28;98357;-74
2024/04/02 01:31:27;;;;;;;;;;;;;;;14.77;47.63;99305.88;4937183;28;99122;-70
2024/04/02 01:33:54;;;;;;;;;;;;;;;14.75;47.40;99297.28;4927972;28;98311;-70
2024/04/02 01:36:22;;;;;;;;;;;;;;;14.72;47.29;99301.41;4938209;28;98458;-74
2024/04/02 01:38:48;;;;;;;;;;;;;;;14.71;47.27;99302.53;4952928;28;99028;-70
2024/04/02 01:41:18;;;;;;;;;;;;;;;14.69;47.34;99309.41;4917701;28;101409;-74
2024/04/02 01:43:45;;;;;;;;;;;;;;;14.67;47.61;99303.50;4935212;28;99835;-70
2024/04/02 01:46:13;;;;;;;;;;;;;;;14.64;47.09;99304.94;4932530;28;98614;-74
2024/04/02 01:48:39;;;;;;;;;;;;;;;14.64;47.26;99304.16;4932329;28;99665;-70
2024/04/02 01:51:05;;;;;;;;;;;;;;;14.62;47.21;99306.38;4934380;28;98185;-74
2024/04/02 01:53:31;;;;;;;;;;;;;;;14.61;47.44;99297.44;4918999;28;98657;-70
2024/04/02 01:55:58;;;;;;;;;;;;;;;14.60;47.60;99293.16;4934978;28;99638;-70
2024/04/02 01:58:24;;;;;;;;;;;;;;;14.58;47.52;99295.41;4917834;28;98092;-74
2024/04/02 02:00:51;;;;;;;;;;;;;;;14.58;47.52;99302.72;4937536;28;116416;-74
2024/04/02 02:03:18;;;;;;;;;;;;;;;14.56;47.37;99307.69;4932525;28;98618;-70
2024/04/02 02:05:47;;;;;;;;;;;;;;;14.54;47.40;99309.91;4923775;28;98363;-70
2024/04/02 02:08:14;;;;;;;;;;;;;;;14.53;47.50;99308.31;4924029;28;98241;-70
2024/04/02 02:10:42;;;;;;;;;;;;;;;14.52;47.59;99302.09;4938088;28;100268;-74
2024/04/02 02:13:09;;;;;;;;;;;;;;;14.49;47.49;99302.72;4918473;28;98092;-70
2024/04/02 02:15:35;;;;;;;;;;;;;;;14.47;47.33;99302.25;4951691;28;98068;-74
2024/04/02 02:18:05;;;;;;;;;;;;;;;14.47;47.72;99307.66;4940908;27;98796;-73
2024/04/02 02:20:33;;;;;;;;;;;;;;;14.45;47.57;99302.53;4967505;27;101171;-74
2024/04/02 02:23:00;;;;;;;;;;;;;;;14.45;47.28;99299.03;4938936;28;98351;-74
2024/04/02 02:25:27;;;;;;;;;;;;;;;14.43;47.22;99296.66;4941852;27;97914;-70
2024/04/02 02:27:53;;;;;;;;;;;;;;;14.42;47.34;99305.91;4942156;27;98214;-70
2024/04/02 02:30:19;;;;;;;;;;;;;;;14.41;47.25;99307.00;4952688;27;97970;-70
2024/04/02 02:32:45;;;;;;;;;;;;;;;14.40;47.34;99304.63;4938280;28;101513;-70
2024/04/02 02:35:12;;;;;;;;;;;;;;;14.38;47.25;99302.25;4941783;27;98275;-74
2024/04/02 02:37:38;;;;;;;;;;;;;;;14.36;47.67;99299.06;4940900;28;99809;-74
2024/04/02 02:40:07;;;;;;;;;;;;;;;14.35;47.61;99302.09;4943259;27;98279;-70
2024/04/02 02:42:33;;;;;;;;;;;;;;;14.33;47.72;99302.41;4930057;28;98152;-74
2024/04/02 02:44:59;;;;;;;;;;;;;;;14.30;47.58;99297.59;4944597;27;98360;-70
2024/04/02 02:47:26;;;;;;;;;;;;;;;14.30;47.49;99305.75;4919544;27;99716;-70
2024/04/02 02:49:54;;;;;;;;;;;;;;;14.28;47.55;99310.69;4956287;27;98093;-74
2024/04/02 02:52:20;;;;;;;;;;;;;;;14.28;47.63;99308.00;4937495;27;98186;-74
2024/04/02 02:54:46;;;;;;;;;;;;;;;14.25;47.65;99314.84;4925813;27;98060;-74
2024/04/02 02:57:13;;;;;;;;;;;;;;;14.24;47.37;99313.25;4919066;27;98405;-70
2024/04/02 02:59:45;;;;;;;;;;;;;;;14.23;47.28;99306.25;4951511;27;100548;-74
2024/04/02 03:02:14;;;;;;;;;;;;;;;14.22;47.74;99311.97;4941785;27;98137;-70
2024/04/02 03:04:41;;;;;;;;;;;;;;;14.20;47.61;99311.50;4949495;28;99594;-70
2024/04/02 03:07:07;;;;;;;;;;;;;;;14.20;47.57;99308.78;4958493;27;99732;-74
2024/04/02 03:09:36;;;;;;;;;;;;;;;14.18;47.29;99329.97;4924074;28;98062;-70
2024/04/02 03:12:03;;;;;;;;;;;;;;;14.17;47.45;99326.47;4922066;27;98475;-74
2024/04/02 03:14:32;;;;;;;;;;;;;;;14.17;47.27;99318.34;4942412;27;98108;-74
2024/04/02 03:16:58;;;;;;;;;;;;;;;14.16;47.31;99315.97;4940548;27;126203;-70
2024/04/02 03:19:24;;;;;;;;;;;;;;;14.16;47.34;99302.41;4940857;27;98007;-70
2024/04/02 03:21:51;;;;;;;;;;;;;;;14.16;47.59;99307.84;4938386;27;99640;-74
2024/04/02 03:24:18;;;;;;;;;;;;;;;14.16;47.28;99307.84;4939052;27;97912;-74
2024/04/02 03:26:47;;;;;;;;;;;;;;;14.16;47.38;99307.84;4937107;28;98666;-69
2024/04/02 03:29:13;;;;;;;;;;;;;;;14.14;47.51;99318.19;4940437;27;99397;-74
2024/04/02 03:31:41;;;;;;;;;;;;;;;14.13;47.50;99311.97;4923949;27;107745;-73
2024/04/02 03:34:07;;;;;;;;;;;;;;;14.13;47.45;99317.38;4937076;27;98193;-70
2024/04/02 03:36:35;;;;;;;;;;;;;;;14.12;47.71;99320.44;4938484;27;98168;-73
2024/04/02 03:39:02;;;;;;;;;;;;;;;14.12;47.63;99317.72;4921067;27;97889;-69
2024/04/02 03:41:29;;;;;;;;;;;;;;;14.11;47.60;99324.22;4966953;27;98128;-69
2024/04/02 03:43:55;;;;;;;;;;;;;;;14.11;47.46;99318.81;4951954;28;99328;-74
2024/04/02 03:46:21;;;;;;;;;;;;;;;14.10;47.23;99322.63;4934044;27;99014;-70
2024/04/02 03:48:49;;;;;;;;;;;;;;;14.09;47.41;99324.56;4957825;28;98058;-70
2024/04/02 03:51:16;;;;;;;;;;;;;;;14.08;47.25;99339.22;4938290;28;98291;-73
2024/04/02 03:53:42;;;;;;;;;;;;;;;14.07;47.62;99329.50;4935413;28;98261;-73
2024/04/02 03:56:09;;;;;;;;;;;;;;;14.06;47.42;99333.31;4934453;28;98798;-69
2024/04/02 03:58:35;;;;;;;;;;;;;;;14.06;47.44;99333.31;4926797;27;98086;-69
2024/04/02 04:01:04;;;;;;;;;;;;;;;14.05;47.28;99342.56;4941832;27;98629;-69
2024/04/02 04:03:30;;;;;;;;;;;;;;;14.05;47.39;99345.28;4920656;27;98681;-70
2024/04/02 04:06:03;;;;;;;;;;;;;;;14.05;47.58;99349.91;4952184;28;97926;-73
2024/04/02 04:08:32;;;;;;;;;;;;;;;14.04;47.38;99349.09;4964971;27;105077;-70
2024/04/02 04:10:59;;;;;;;;;;;;;;;14.04;47.51;99354.53;4941147;28;97937;-73
2024/04/02 04:13:26;;;;;;;;;;;;;;;14.04;47.39;99353.72;4937624;28;98436;-69
2024/04/02 04:15:56;;;;;;;;;;;;;;;14.04;47.47;99349.09;4942956;27;98479;-73
2024/04/02 04:18:23;;;;;;;;;;;;;;;14.04;47.29;99353.72;4938106;27;98524;-74
2024/04/02 04:20:59;;;;;;;;;;;;;;;14.03;47.70;99355.66;4941277;27;98360;-69
2024/04/02 04:23:26;;;;;;;;;;;;;;;14.03;47.59;99354.81;4954399;27;97930;-73
2024/04/02 04:25:58;;;;;;;;;;;;;;;14.05;47.39;99360.75;4940463;27;98640;-74
2024/04/02 04:28:24;;;;;;;;;;;;;;;14.04;47.78;99367.28;4949675;28;98883;-69
2024/04/02 04:30:55;;;;;;;;;;;;;;;14.04;47.75;99361.84;4956151;27;99477;-73
2024/04/02 04:33:22;;;;;;;;;;;;;;;14.04;47.32;99359.94;4939412;27;99432;-70
2024/04/02 04:35:48;;;;;;;;;;;;;;;14.04;47.65;99359.94;4939165;27;98344;-69
2024/04/02 04:38:18;;;;;;;;;;;;;;;14.05;47.70;99352.59;4933459;28;98112;-74
2024/04/02 04:40:44;;;;;;;;;;;;;;;14.05;47.26;99358.81;4926285;27;97905;-74
2024/04/02 04:43:17;;;;;;;;;;;;;;;14.05;47.73;99356.09;4921136;28;99259;-73
2024/04/02 04:45:54;;;;;;;;;;;;;;;14.05;47.45;99350.69;4942221;27;98246;-69
2024/04/02 04:48:20;;;;;;;;;;;;;;;14.06;47.22;99355.00;4942747;28;99602;-70
2024/04/02 04:51:04;;;;;;;;;;;;;;;14.07;47.57;99361.19;4935758;27;98039;-74
2024/04/02 04:53:31;;;;;;;;;;;;;;;14.09;47.22;99372.53;4935467;27;97924;-69
2024/04/02 04:56:02;;;;;;;;;;;;;;;14.09;47.62;99365.19;4935429;27;98169;-69
2024/04/02 04:58:29;;;;;;;;;;;;;;;14.10;47.51;99366.78;4921008;28;98139;-69
2024/04/02 05:00:55;;;;;;;;;;;;;;;14.11;47.25;99365.69;4939161;27;97842;-74
2024/04/02 05:03:22;;;;;;;;;;;;;;;14.14;47.65;99370.47;4922963;27;98068;-74
2024/04/02 05:05:48;;;;;;;;;;;;;;;14.17;47.51;99371.75;4935656;28;98386;-69
2024/04/02 05:08:17;;;;;;;;;;;;;;;14.19;47.17;99369.53;4939811;27;98080;-69
2024/04/02 05:10:44;;;;;;;;;;;;;;;14.22;47.25;99368.88;4951538;28;98160;-70
2024/04/02 05:13:11;;;;;;;;;;;;;;;14.27;47.23;99379.59;4936903;27;98906;-70
2024/04/02 05:15:37;;;;;;;;;;;;;;;14.33;47.18;99372.88;4906018;28;98841;-73
2024/04/02 05:18:04;;;;;;;;;;;;;;;14.38;47.11;99363.78;4939033;27;98663;-70
2024/04/02 05:20:32;;;;;;;;;;;;;;;14.41;47.09;99371.28;4956329;28;98012;-69
2024/04/02 05:22:58;;;;;;;;;;;;;;;14.46;47.21;99368.41;4937520;27;98185;-69
2024/04/02 05:25:25;;;;;;;;;;;;;;;14.48;47.46;99369.69;4930330;28;98077;-74
2024/04/02 05:27:51;;;;;;;;;;;;;;;14.53;46.89;99370.66;4915053;27;101077;-74
2024/04/02 05:30:18;;;;;;;;;;;;;;;14.56;46.98;99370.84;4931507;27;98225;-74
2024/04/02 05:32:44;;;;;;;;;;;;;;;14.58;47.22;99381.34;4934393;28;98668;-69
2024/04/02 05:35:10;;;;;;;;;;;;;;;14.65;47.22;99365.41;4934924;27;98120;-69
2024/04/02 05:37:36;;;;;;;;;;;;;;;14.72;46.99;99373.84;4936475;28;98603;-74
2024/04/02 05:40:07;;;;;;;;;;;;;;;14.74;46.91;99377.06;4935258;27;98055;-74
2024/04/02 05:42:33;;;;;;;;;;;;;;;14.73;46.91;99387.09;4920531;27;98399;-74
2024/04/02 05:45:00;;;;;;;;;;;;;;;14.75;47.33;99386.00;4933639;27;98489;-70
2024/04/02 05:47:26;;;;;;;;;;;;;;;14.77;47.05;99394.59;4938778;27;98796;-69
2024/04/02 05:49:58;;;;;;;;;;;;;;;14.81;46.99;99392.81;4955554;27;99715;-74
2024/04/02 05:52:25;;;;;;;;;;;;;;;14.87;47.14;99396.97;4936750;27;97900;-70
2024/04/02 05:54:52;;;;;;;;;;;;;;;14.92;46.90;99405.72;4919719;27;98283;-68
2024/04/02 05:57:18;;;;;;;;;;;;;;;15.00;46.85;99403.34;4937629;27;98244;-70
2024/04/02 05:59:45;;;;;;;;;;;;;;;15.07;46.82;99403.66;4939492;27;97964;-69
2024/04/02 06:02:11;;;;;;;;;;;;;;;15.17;46.95;99408.75;4937488;27;100060;-74
2024/04/02 06:04:37;;;;;;;;;;;;;;;15.36;46.62;99409.16;4938639;28;99582;-69
2024/04/02 06:07:03;;;;;;;;;;;;;;;15.41;46.58;99419.06;4917914;27;98928;-69
2024/04/02 06:09:30;;;;;;;;;;;;;;;15.41;46.70;99419.06;4920991;27;98348;-69
2024/04/02 06:11:56;;;;;;;;;;;;;;;15.54;46.63;99412.63;4953374;27;98400;-74
2024/04/02 06:14:23;;;;;;;;;;;;;;;15.50;46.72;99427.16;4937020;27;100290;-74
2024/04/02 06:16:49;;;;;;;;;;;;;;;15.57;46.62;99425.53;4917674;28;98183;-69
2024/04/02 06:19:20;;;;;;;;;;;;;;;15.59;46.69;99420.56;4951124;27;99808;-74
2024/04/02 06:21:46;;;;;;;;;;;;;;;15.62;46.93;99432.72;4917744;28;98236;-69
2024/04/02 06:24:13;;;;;;;;;;;;;;;15.76;46.76;99429.78;4932384;27;98499;-74
2024/04/02 06:26:40;;;;;;;;;;;;;;;15.84;46.59;99429.00;4919699;28;98516;-70
2024/04/02 06:29:06;;;;;;;;;;;;;;;15.83;46.76;99421.94;4917494;27;98643;-69
2024/04/02 06:31:34;;;;;;;;;;;;;;;15.83;46.83;99430.09;4952529;27;98849;-75
2024/04/02 06:34:01;;;;;;;;;;;;;;;15.81;46.91;99435.88;4949561;27;98253;-75
2024/04/02 06:36:29;;;;;;;;;;;;;;;15.85;46.70;99434.09;4935669;27;100242;-70
2024/04/02 06:38:55;;;;;;;;;;;;;;;16.05;46.52;99437.97;4939169;27;98359;-69
2024/04/02 06:41:22;;;;;;;;;;;;;;;16.42;46.19;99430.06;4937886;27;98327;-74
2024/04/02 06:43:50;;;;;;;;;;;;;;;16.47;46.47;99429.88;4949450;28;98127;-75
2024/04/02 06:46:16;;;;;;;;;;;;;;;16.34;46.62;99437.16;4950482;27;98998;-70
2024/04/02 06:48:43;;;;;;;;;;;;;;;16.61;46.23;99430.41;4934842;27;98390;-70
2024/04/02 06:51:13;;;;;;;;;;;;;;;16.76;46.15;99422.81;4934158;27;99410;-76
2024/04/02 06:53:42;;;;;;;;;;;;;;;16.90;46.32;99426.84;4954413;27;99278;-70
2024/04/02 06:56:10;;;;;;;;;;;;;;;17.00;46.19;99428.34;4917867;27;98702;-76
2024/04/02 06:58:39;;;;;;;;;;;;;;;17.09;46.22;99428.25;4952632;27;98142;-70
2024/04/02 07:01:06;;;;;;;;;;;;;;;17.32;46.01;99442.28;4941622;27;100477;-70
2024/04/02 07:03:32;;;;;;;;;;;;;;;17.64;45.58;99446.06;4930578;27;98682;-75
2024/04/02 07:05:58;;;;;;;;;;;;;;;17.59;45.83;99444.38;4931369;27;100144;-75
2024/04/02 07:08:28;;;;;;;;;;;;;;;17.73;45.73;99449.50;4938375;27;99711;-76
2024/04/02 07:11:03;;;;;;;;;;;;;;;17.83;45.93;99451.00;4939025;27;98592;-75
2024/04/02 07:13:32;;;;;;;;;;;;;;;18.00;45.81;99445.34;4953973;27;98534;-70
2024/04/02 07:16:01;;;;;;;;;;;;;;;18.12;45.64;99458.97;4932810;27;98135;-75
2024/04/02 07:18:35;;;;;;;;;;;;;;;18.22;45.61;99454.19;4919599;27;98322;-70
2024/04/02 07:21:04;;;;;;;;;;;;;;;18.65;45.38;99461.72;4943119;27;98341;-74
2024/04/02 07:23:32;;;;;;;;;;;;;;;18.90;45.21;99448.81;4933844;27;98392;-74
2024/04/02 07:25:58;;;;;;;;;;;;;;;18.98;45.52;99450.63;4934378;27;98275;-70
2024/04/02 07:28:25;;;;;;;;;;;;;;;19.09;45.34;99453.63;4937520;27;98211;-75
2024/04/02 07:30:52;;;;;;;;;;;;;;;19.07;45.60;99458.66;4937500;27;98314;-71
2024/04/02 07:33:18;;;;;;;;;;;;;;;19.18;45.49;99453.47;4921540;28;98733;-71
2024/04/02 07:35:44;;;;;;;;;;;;;;;19.00;45.85;99455.72;4919260;28;98137;-70
2024/04/02 07:38:13;;;;;;;;;;;;;;;19.53;45.19;99464.56;4931515;27;99421;-74
2024/04/02 07:40:40;;;;;;;;;;;;;;;19.58;45.25;99461.59;4924289;27;98805;-71
2024/04/02 07:43:06;;;;;;;;;;;;;;;19.67;45.32;99470.44;4922539;27;98207;-70
2024/04/02 07:45:36;;;;;;;;;;;;;;;20.12;44.84;99469.16;4934397;27;98594;-70
2024/04/02 07:48:04;;;;;;;;;;;;;;;20.35;44.75;99452.88;4934883;27;98791;-76
2024/04/02 07:50:37;;;;;;;;;;;;;;;20.83;44.39;99464.53;4940000;27;98492;-76
2024/04/02 07:53:03;;;;;;;;;;;;;;;21.38;43.87;99467.97;4947042;27;100042;-71
2024/04/02 07:55:31;;;;;;;;;;;;;;;21.00;44.58;99486.00;4948291;28;98158;-75
2024/04/02 07:57:57;;;;;;;;;;;;;;;21.00;44.96;99490.69;4935206;27;98439;-71
2024/04/02 08:00:23;;;;;;;;;;;;;;;22.01;43.68;99483.16;4934651;27;99288;-75
2024/04/02 08:02:51;;;;;;;;;;;;;;;22.36;43.70;99482.13;4932773;27;98805;-74
2024/04/02 08:05:18;;;;;;;;;;;;;;;22.45;43.80;99482.66;4919740;27;97975;-71
2024/04/02 08:07:48;;;;;;;;;;;;;;;22.81;43.53;99483.94;4918082;27;98179;-71
2024/04/02 08:10:15;;;;;;;;;;;;;;;23.40;43.44;99482.28;4934723;27;98540;-74
2024/04/02 08:12:41;;;;;;;;;;;;;;;23.58;43.69;99493.47;4921571;28;102753;-72
2024/04/02 08:15:08;;;;;;;;;;;;;;;24.37;42.74;99483.91;4936659;27;98746;-72
2024/04/02 08:17:35;;;;;;;;;;;;;;;24.77;42.99;99495.97;4932453;27;98321;-71
2024/04/02 08:20:07;;;;;;;;;;;;;;;24.39;43.73;99489.84;4935914;27;98505;-76
2024/04/02 08:22:34;;;;;;;;;;;;;;;24.95;43.17;99496.03;4934435;27;98421;-75
2024/04/02 08:25:03;;;;;;;;;;;;;;;25.51;42.96;99500.22;4947374;27;99251;-76
2024/04/02 08:27:31;;;;;;;;;;;;;;;24.99;43.61;99516.13;4917428;27;98122;-75
2024/04/02 08:29:58;;;;;;;;;;;;;;;24.65;44.01;99515.59;4937805;27;99625;-74
2024/04/02 08:32:26;;;;;;;;;;;;;;;24.47;44.25;99499.72;4948197;28;99363;-70
2024/04/02 08:34:53;;;;;;;;;;;;;;;24.86;43.96;99515.69;4921396;27;98372;-71
2024/04/02 08:37:19;;;;;;;;;;;;;;;24.88;43.89;99502.34;4930872;27;98132;-72
2024/04/02 08:39:45;;;;;;;;;;;;;;;25.07;43.73;99512.22;4916182;27;98109;-72
2024/04/02 08:42:14;;;;;;;;;;;;;;;24.96;44.01;99503.16;4936552;27;98749;-75
2024/04/02 08:44:41;;;;;;;;;;;;;;;25.90;43.01;99507.78;4931040;27;98458;-71
2024/04/02 08:47:07;;;;;;;;;;;;;;;25.82;43.57;99515.25;4931479;27;100161;-72
2024/04/02 08:49:34;;;;;;;;;;;;;;;27.07;42.41;99525.34;4921570;28;98927;-76
2024/04/02 08:52:01;;;;;;;;;;;;;;;28.02;41.81;99522.44;4937316;27;100117;-76
2024/04/02 08:54:28;;;;;;;;;;;;;;;28.55;41.40;99512.91;4935768;28;101951;-73
2024/04/02 08:56:56;;;;;;;;;;;;;;;28.77;41.74;99516.22;4931917;27;98154;-76
2024/04/02 08:59:25;;;;;;;;;;;;;;;29.76;41.02;99505.84;4949706;27;98229;-72
2024/04/02 09:01:51;;;;;;;;;;;;;;;30.54;40.92;99527.97;4949608;27;98438;-72
2024/04/02 09:04:20;;;;;;;;;;;;;;;30.18;41.97;99520.25;4929173;27;98311;-75
2024/04/02 09:06:46;;;;;;;;;;;;;;;30.21;41.93;99515.84;4931989;28;98861;-75
2024/04/02 09:09:25;;;;;;;;;;;;;;;29.65;42.72;99519.09;4918002;27;99064;-75
2024/04/02 09:11:52;;;;;;;;;;;;;;;28.85;43.58;99523.25;4944711;27;98183;-72
2024/04/02 09:14:20;;;;;;;;;;;;;;;28.16;44.45;99530.66;4964880;27;98993;-72
2024/04/02 09:16:52;;;;;;;;;;;;;;;27.70;44.68;99523.44;4937908;28;98160;-73
2024/04/02 09:19:19;;;;;;;;;;;;;;;27.73;44.11;99530.94;4937347;27;98174;-72
2024/04/02 09:21:45;;;;;;;;;;;;;;;27.98;43.87;99522.50;4911896;27;99944;-72
2024/04/02 09:24:13;;;;;;;;;;;;;;;27.82;43.86;99524.97;4931992;27;99233;-75
2024/04/02 09:26:40;;;;;;;;;;;;;;;27.88;43.97;99523.34;4930120;28;98170;-73
2024/04/02 09:29:06;;;;;;;;;;;;;;;28.00;43.54;99527.63;4932241;27;98204;-73
2024/04/02 09:31:33;;;;;;;;;;;;;;;28.26;43.58;99535.31;4932456;28;98405;-74
2024/04/02 09:34:07;;;;;;;;;;;;;;;28.26;43.34;99532.53;4933490;27;100241;-74
2024/04/02 09:36:42;;;;;;;;;;;;;;;28.12;43.95;99536.22;4936893;28;98149;-74
2024/04/02 09:39:10;;;;;;;;;;;;;;;28.62;43.02;99530.25;4950266;27;99165;-72
2024/04/02 09:41:39;;;;;;;;;;;;;;;29.00;42.97;99537.75;4919470;28;98222;-74
2024/04/02 09:44:07;;;;;;;;;;;;;;;28.98;43.29;99546.50;4948214;27;99267;-73
2024/04/02 09:46:37;;;;;;;;;;;;;;;29.08;43.35;99534.50;4929443;28;99381;-75
2024/04/02 09:49:04;;;;;;;;;;;;;;;28.84;43.72;99533.53;4933196;27;98174;-73
2024/04/02 09:51:30;;;;;;;;;;;;;;;28.39;43.98;99535.63;4931356;27;99253;-72
2024/04/02 09:53:57;;;;;;;;;;;;;;;29.89;42.41;99539.34;4944898;27;98286;-73
2024/04/02 09:56:26;;;;;;;;;;;;;;;29.22;43.47;99552.94;4950905;27;98585;-75
2024/04/02 09:58:53;;;;;;;;;;;;;;;29.40;43.04;99555.50;4932914;27;98108;-72
2024/04/02 10:01:28;;;;;;;;;;;;;;;29.25;43.65;99554.91;4919877;27;99255;-73
2024/04/02 10:04:01;;;;;;;;;;;;;;;29.04;43.43;99541.28;4931723;28;98714;-75
2024/04/02 10:06:28;;;;;;;;;;;;;;;29.38;43.15;99532.13;4946716;27;99092;-73
2024/04/02 10:08:58;;;;;;;;;;;;;;;30.35;42.20;99537.84;4935372;28;98050;-72
2024/04/02 10:11:52;;;;;;;;;;;;;;;32.30;40.40;99533.31;4946428;27;98533;-70
2024/04/02 10:14:22;;;;;;;;;;;;;;;33.75;39.40;99540.78;4943591;27;98418;-74
2024/04/02 10:16:48;;;;;;;;;;;;;;;33.69;40.13;99544.16;4952683;28;98506;-74
2024/04/02 10:19:23;;;;;;;;;;;;;;;32.92;41.23;99539.63;4947787;27;98230;-75
2024/04/02 10:21:51;;;;;;;;;;;;;;;32.89;41.73;99541.28;4921591;28;98348;-75
2024/04/02 10:24:22;;;;;;;;;;;;;;;32.43;42.39;99537.00;4934616;27;99114;-74
2024/04/02 10:26:55;;;;;;;;;;;;;;;32.35;42.02;99541.94;4955765;28;101635;-74
2024/04/02 10:29:28;;;;;;;;;;;;;;;33.47;41.25;99546.81;4951320;27;99018;-74
2024/04/02 10:31:56;;;;;;;;;;;;;;;32.76;41.79;99554.41;4951527;27;98561;-72
2024/04/02 10:34:25;;;;;;;;;;;;;;;32.12;42.90;99545.69;4933198;27;98150;-71
2024/04/02 10:36:51;;;;;;;;;;;;;;;33.19;41.47;99542.84;4953388;28;98372;-72
2024/04/02 10:39:18;;;;;;;;;;;;;;;32.29;42.93;99559.63;4948421;27;98814;-75
2024/04/02 10:41:46;;;;;;;;;;;;;;;31.71;43.24;99549.81;4926569;28;99779;-73
2024/04/02 10:44:12;;;;;;;;;;;;;;;32.21;42.27;99550.66;4939850;27;99675;-74
2024/04/02 10:46:39;;;;;;;;;;;;;;;32.15;42.57;99553.19;4939264;27;97991;-74
2024/04/02 10:49:06;;;;;;;;;;;;;;;32.35;42.49;99541.16;4939841;27;98320;-72
2024/04/02 10:51:32;;;;;;;;;;;;;;;32.29;42.33;99554.03;4936341;27;99045;-72
2024/04/02 10:53:59;;;;;;;;;;;;;;;33.69;41.17;99557.34;4940393;27;100161;-73
2024/04/02 10:56:28;;;;;;;;;;;;;;;32.64;42.64;99544.78;4938463;27;99449;-74
2024/04/02 10:58:55;;;;;;;;;;;;;;;31.81;43.17;99548.00;4933852;28;98251;-73
2024/04/02 11:01:21;;;;;;;;;;;;;;;31.42;43.62;99554.47;4933466;27;98385;-73
2024/04/02 11:03:51;;;;;;;;;;;;;;;31.69;43.19;99543.13;4932625;27;99054;-71
2024/04/02 11:06:18;;;;;;;;;;;;;;;31.34;43.50;99522.44;4952406;27;99863;-72
2024/04/02 11:08:45;;;;;;;;;;;;;;;30.81;43.94;99555.66;4919727;27;98218;-71
2024/04/02 11:11:20;;;;;;;;;;;;;;;30.25;44.56;99556.25;4936400;27;98473;-74
2024/04/02 11:13:47;;;;;;;;;;;;;;;29.69;44.78;99564.25;4955769;27;99192;-73
2024/04/02 11:16:17;;;;;;;;;;;;;;;29.37;44.76;99559.09;4914023;27;98709;-72
2024/04/02 11:18:44;;;;;;;;;;;;;;;29.13;45.13;99560.22;4919384;28;99463;-74
2024/04/02 11:21:17;;;;;;;;;;;;;;;28.62;45.06;99565.47;4912278;28;98384;-72
2024/04/02 11:26:31;;;;;;;;;;;;;;;28.25;45.23;99582.78;4925137;27;98093;-74
2024/04/02 11:29:23;;;;;;;;;;;;;;;27.85;45.31;99582.28;4924897;28;98257;-72
2024/04/02 11:31:51;;;;;;;;;;;;;;;27.33;45.93;99580.19;4932659;28;99173;-74
2024/04/02 11:34:19;;;;;;;;;;;;;;;27.03;45.97;99577.09;4936375;28;98868;-72
2024/04/02 11:36:47;;;;;;;;;;;;;;;26.67;45.92;99569.69;4920918;28;99538;-73
2024/04/02 11:39:14;;;;;;;;;;;;;;;26.38;46.08;99588.22;4921773;28;98264;-72
2024/04/02 11:41:41;;;;;;;;;;;;;;;26.82;45.39;99587.03;4921101;28;99944;-72
2024/04/02 11:44:11;;;;;;;;;;;;;;;27.03;45.01;99591.69;4922107;28;99041;-74
2024/04/02 11:46:37;;;;;;;;;;;;;;;26.87;45.43;99594.91;4920006;28;98264;-72
2024/04/02 11:49:04;;;;;;;;;;;;;;;26.59;45.42;99594.97;4928447;28;99680;-75
2024/04/02 11:51:30;;;;;;;;;;;;;;;26.24;45.76;99590.19;4911763;28;98428;-72
2024/04/02 11:53:57;;;;;;;;;;;;;;;25.90;45.96;99582.28;4917777;28;98983;-74
2024/04/02 12:00:00;;;;;;;;;;;;;;;25.74;45.85;99601.13;4918086;28;98045;-75
2024/04/02 12:01:56;;;;;;;;;;;;;;;25.90;45.33;99599.66;4936121;28;98449;-73
2024/04/02 12:04:23;;;;;;;;;;;;;;;25.62;45.50;99603.09;4906463;28;98197;-72
2024/04/02 12:06:49;;;;;;;;;;;;;;;25.37;45.74;99604.97;4936767;28;98072;-71
2024/04/02 12:09:18;;;;;;;;;;;;;;;25.48;45.48;99602.25;4951638;28;99165;-74
2024/04/02 12:11:44;;;;;;;;;;;;;;;25.76;45.10;99629.94;4918816;28;98483;-72
2024/04/02 12:14:10;;;;;;;;;;;;;;;26.04;44.80;99607.16;4908102;28;98262;-72
2024/04/02 12:16:37;;;;;;;;;;;;;;;26.11;44.78;99618.19;4935838;28;111352;-74
2024/04/02 12:19:03;;;;;;;;;;;;;;;26.01;45.05;99607.13;4926003;27;98885;-72
2024/04/02 12:21:30;;;;;;;;;;;;;;;25.95;45.12;99618.56;4930573;27;99055;-72
2024/04/02 12:23:56;;;;;;;;;;;;;;;25.63;45.59;99621.22;4934942;27;98153;-72
2024/04/02 12:26:23;;;;;;;;;;;;;;;25.73;45.31;99621.63;4936882;27;100142;-72
2024/04/02 12:28:50;;;;;;;;;;;;;;;26.04;44.86;99626.47;4919122;27;98259;-71
2024/04/02 12:31:17;;;;;;;;;;;;;;;26.06;44.66;99620.56;4932199;27;98735;-74
2024/04/02 12:33:43;;;;;;;;;;;;;;;26.05;44.93;99624.50;4946055;27;99451;-74
2024/04/02 12:36:09;;;;;;;;;;;;;;;26.09;44.84;99631.59;4921973;27;98749;-72
2024/04/02 12:38:36;;;;;;;;;;;;;;;26.15;45.04;99627.28;4933503;27;98273;-72
2024/04/02 12:41:06;;;;;;;;;;;;;;;26.05;44.87;99622.50;4949251;27;99213;-72
2024/04/02 12:43:33;;;;;;;;;;;;;;;26.03;45.14;99635.16;4951629;27;101947;-71
2024/04/02 12:45:59;;;;;;;;;;;;;;;26.11;45.03;99622.94;4939200;27;98065;-74
2024/04/02 12:48:25;;;;;;;;;;;;;;;26.28;44.74;99624.13;4948085;27;98488;-72
2024/04/02 12:50:52;;;;;;;;;;;;;;;26.30;44.89;99644.66;4916103;28;98305;-74
2024/04/02 12:53:20;;;;;;;;;;;;;;;26.18;44.84;99629.25;4933222;27;99823;-74